createdAt,value
2023-03-22T00:01:16.721Z,4.97
2023-03-22T00:03:43.518Z,4.95
2023-03-22T00:06:10.760Z,6.70
2023-03-22T00:08:37.786Z,8.07
2023-03-22T00:11:05.827Z,6.30
2023-03-22T00:13:35.577Z,6.45
2023-03-22T00:16:02.803Z,7.30
2023-03-22T00:18:30.129Z,5.35
2023-03-22T00:20:57.514Z,5.80
2023-03-22T00:23:25.302Z,7.38
2023-03-22T00:25:52.214Z,4.47
2023-03-22T00:28:19.011Z,7.15
2023-03-22T00:31:02.596Z,5.30
2023-03-22T00:33:31.224Z,5.30
2023-03-22T00:36:01.074Z,6.80
2023-03-22T00:38:42.100Z,7.20
2023-03-22T00:41:11.521Z,6.70
2023-03-22T00:43:38.462Z,7.50
2023-03-22T00:46:05.597Z,5.25
2023-03-22T00:48:32.487Z,5.18
2023-03-22T00:50:59.186Z,5.53
2023-03-22T00:53:26.118Z,6.32
2023-03-22T00:55:52.859Z,9.60
2023-03-22T00:58:19.649Z,5.13
2023-03-22T01:00:46.578Z,7.57
2023-03-22T01:03:14.245Z,6.80
2023-03-22T01:05:40.996Z,7.32
2023-03-22T01:08:08.874Z,7.05
2023-03-22T01:10:37.064Z,7.95
2023-03-22T01:13:05.351Z,6.00
2023-03-22T01:15:32.337Z,5.95
2023-03-22T01:17:59.479Z,7.22
2023-03-22T01:20:26.568Z,8.38
2023-03-22T01:22:53.322Z,7.25
2023-03-22T01:25:20.206Z,7.53
2023-03-22T01:27:46.909Z,7.43
2023-03-22T01:30:13.945Z,6.55
2023-03-22T01:32:40.813Z,8.43
2023-03-22T01:35:08.090Z,7.20
2023-03-22T01:37:34.799Z,6.55
2023-03-22T01:40:01.464Z,5.93
2023-03-22T01:42:28.536Z,6.43
2023-03-22T01:45:15.389Z,5.75
2023-03-22T01:47:47.118Z,5.82
2023-03-22T01:50:14.851Z,7.15
2023-03-22T01:52:41.752Z,7.93
2023-03-22T01:55:09.344Z,5.93
2023-03-22T01:57:37.677Z,5.28
2023-03-22T02:00:11.151Z,8.60
2023-03-22T02:02:38.056Z,8.40
2023-03-22T02:05:05.225Z,5.25
2023-03-22T02:07:32.153Z,9.50
2023-03-22T02:09:59.734Z,6.80
2023-03-22T02:12:30.605Z,6.47
2023-03-22T02:15:33.032Z,5.82
2023-03-22T02:18:22.945Z,5.95
2023-03-22T02:21:29.444Z,8.10
2023-03-22T02:23:56.065Z,5.15
2023-03-22T02:27:04.945Z,7.18
2023-03-22T02:29:36.960Z,6.32
2023-03-22T02:32:43.481Z,6.15
2023-03-22T02:35:23.221Z,6.43
2023-03-22T02:38:29.733Z,6.47
2023-03-22T02:41:20.407Z,6.45
2023-03-22T02:44:27.018Z,9.95
2023-03-22T02:47:20.729Z,5.93
2023-03-22T02:49:51.958Z,5.18
2023-03-22T02:52:25.971Z,4.80
2023-03-22T02:55:14.046Z,5.40
2023-03-22T02:57:44.106Z,7.28
2023-03-22T03:00:14.084Z,6.93
2023-03-22T03:02:45.358Z,6.93
2023-03-22T03:05:14.947Z,6.55
2023-03-22T03:07:45.416Z,6.40
2023-03-22T03:10:16.216Z,5.13
2023-03-22T03:12:45.116Z,5.38
2023-03-22T03:15:15.765Z,6.68
2023-03-22T03:18:03.380Z,5.72
2023-03-22T03:20:48.805Z,7.10
2023-03-22T03:23:28.338Z,10.48
2023-03-22T03:25:59.362Z,6.05
2023-03-22T03:28:46.598Z,5.55
2023-03-22T03:31:26.349Z,5.78
2023-03-22T03:34:19.380Z,5.28
2023-03-22T03:36:56.688Z,7.15
2023-03-22T03:39:26.320Z,5.03
2023-03-22T03:41:55.095Z,5.15
2023-03-22T03:44:22.532Z,7.60
2023-03-22T03:46:50.639Z,7.05
2023-03-22T03:49:18.028Z,6.78
2023-03-22T03:51:50.735Z,6.80
2023-03-22T03:54:17.710Z,8.77
2023-03-22T03:56:44.640Z,5.97
2023-03-22T03:59:12.292Z,5.45
2023-03-22T04:01:40.122Z,5.60
2023-03-22T04:04:07.053Z,5.45
2023-03-22T04:06:34.626Z,7.15
2023-03-22T04:09:01.642Z,4.78
2023-03-22T04:11:28.386Z,5.20
2023-03-22T04:13:55.133Z,5.53
2023-03-22T04:16:21.875Z,3.88
2023-03-22T04:18:48.636Z,4.15
2023-03-22T04:21:16.493Z,5.90
2023-03-22T04:23:46.540Z,4.75
2023-03-22T04:26:13.532Z,4.97
2023-03-22T04:28:40.216Z,4.13
2023-03-22T04:31:08.302Z,6.93
2023-03-22T04:33:39.467Z,5.13
2023-03-22T04:36:10.109Z,6.70
2023-03-22T04:38:39.409Z,7.13
2023-03-22T04:41:06.686Z,5.05
2023-03-22T04:43:34.853Z,4.25
2023-03-22T04:46:02.183Z,4.68
2023-03-22T04:48:29.645Z,4.30
2023-03-22T04:50:57.339Z,5.72
2023-03-22T04:53:27.222Z,3.97
2023-03-22T04:55:57.200Z,3.53
2023-03-22T04:58:25.509Z,3.50
2023-03-22T05:00:53.658Z,3.08
2023-03-22T05:03:21.544Z,5.10
2023-03-22T05:05:53.385Z,6.68
2023-03-22T05:08:21.363Z,3.92
2023-03-22T05:10:48.126Z,5.55
2023-03-22T05:13:14.851Z,5.32
2023-03-22T05:15:42.693Z,4.88
2023-03-22T05:18:09.638Z,4.57
2023-03-22T05:20:36.474Z,4.95
2023-03-22T05:23:04.395Z,5.60
2023-03-22T05:25:31.033Z,5.80
2023-03-22T05:28:01.313Z,4.35
2023-03-22T05:30:29.296Z,4.60
2023-03-22T05:32:59.754Z,5.05
2023-03-22T05:35:27.051Z,6.40
2023-03-22T05:37:53.713Z,4.28
2023-03-22T05:40:20.536Z,4.68
2023-03-22T05:42:47.182Z,4.97
2023-03-22T05:45:14.250Z,4.82
2023-03-22T05:47:41.039Z,4.70
2023-03-22T05:50:10.678Z,5.70
2023-03-22T05:52:37.553Z,5.10
2023-03-22T05:55:04.755Z,5.75
2023-03-22T05:57:31.361Z,5.07
2023-03-22T05:59:58.182Z,6.65
2023-03-22T06:02:26.271Z,5.28
2023-03-22T06:04:53.229Z,5.90
2023-03-22T06:07:20.274Z,4.72
2023-03-22T06:09:46.924Z,6.40
2023-03-22T06:12:15.389Z,6.32
2023-03-22T06:14:42.063Z,6.32
2023-03-22T06:17:09.521Z,6.18
2023-03-22T06:19:36.191Z,4.80
2023-03-22T06:22:03.040Z,6.40
2023-03-22T06:24:29.660Z,5.82
2023-03-22T06:26:56.412Z,8.60
2023-03-22T06:29:23.121Z,5.68
2023-03-22T06:31:49.741Z,6.22
2023-03-22T06:34:16.435Z,6.45
2023-03-22T06:36:43.256Z,5.70
2023-03-22T06:39:09.923Z,6.25
2023-03-22T06:41:36.708Z,5.53
2023-03-22T06:44:03.326Z,5.80
2023-03-22T06:46:30.095Z,8.30
2023-03-22T06:48:56.824Z,5.65
2023-03-22T06:51:23.556Z,6.22
2023-03-22T06:53:50.274Z,7.30
2023-03-22T06:56:16.958Z,6.60
2023-03-22T06:58:43.631Z,6.68
2023-03-22T07:01:10.643Z,7.60
2023-03-22T07:03:37.359Z,7.47
2023-03-22T07:06:05.939Z,9.48
2023-03-22T07:08:33.011Z,7.68
2023-03-22T07:10:59.748Z,9.75
2023-03-22T07:13:26.784Z,11.60
2023-03-22T07:15:58.084Z,8.35
2023-03-22T07:18:25.780Z,10.07
2023-03-22T07:20:52.512Z,11.05
2023-03-22T07:23:20.095Z,7.88
2023-03-22T07:25:47.993Z,8.60
2023-03-22T07:28:15.657Z,10.40
2023-03-22T07:30:42.612Z,8.13
2023-03-22T07:33:11.148Z,9.98
2023-03-22T07:35:38.303Z,10.18
2023-03-22T07:38:06.452Z,9.00
2023-03-22T07:40:33.340Z,8.48
2023-03-22T07:43:00.438Z,7.28
2023-03-22T07:45:27.229Z,6.78
2023-03-22T07:47:53.986Z,6.63
2023-03-22T07:50:20.968Z,6.07
2023-03-22T07:52:47.708Z,7.70
2023-03-22T07:55:15.333Z,7.38
2023-03-22T07:57:42.078Z,8.07
2023-03-22T08:00:12.486Z,6.72
2023-03-22T08:02:40.066Z,6.05
2023-03-22T08:05:07.404Z,5.95
2023-03-22T08:07:34.136Z,4.05
2023-03-22T08:10:01.059Z,4.78
2023-03-22T08:12:28.077Z,4.50
2023-03-22T08:14:54.842Z,3.72
2023-03-22T08:17:21.679Z,3.45
2023-03-22T08:19:48.405Z,4.43
2023-03-22T08:22:15.387Z,3.90
2023-03-22T08:24:42.182Z,3.28
2023-03-22T08:27:08.819Z,3.75
2023-03-22T08:29:35.660Z,4.07
2023-03-22T08:32:03.813Z,3.92
2023-03-22T08:34:31.332Z,3.47
2023-03-22T08:36:58.016Z,4.45
2023-03-22T08:39:24.972Z,3.72
2023-03-22T08:41:52.294Z,2.83
2023-03-22T08:44:19.015Z,4.53
2023-03-22T08:46:45.648Z,3.63
2023-03-22T08:49:12.595Z,2.85
2023-03-22T08:51:39.716Z,2.53
2023-03-22T08:54:06.912Z,4.10
2023-03-22T08:56:37.338Z,2.45
2023-03-22T08:59:06.634Z,3.45
2023-03-22T09:01:33.852Z,3.67
2023-03-22T09:04:00.707Z,2.33
2023-03-22T09:06:27.913Z,2.97
2023-03-22T09:08:54.862Z,3.35
2023-03-22T09:11:22.076Z,5.38
2023-03-22T09:13:49.919Z,4.18
2023-03-22T09:16:17.087Z,2.08
2023-03-22T09:18:44.274Z,1.83
2023-03-22T09:21:11.976Z,4.32
2023-03-22T09:23:38.729Z,2.63
2023-03-22T09:26:08.087Z,1.88
2023-03-22T09:28:36.621Z,1.83
2023-03-22T09:31:06.637Z,2.20
2023-03-22T09:33:34.310Z,2.20
2023-03-22T09:36:01.344Z,1.65
2023-03-22T09:38:32.479Z,1.70
2023-03-22T09:41:20.783Z,2.67
2023-03-22T09:43:54.686Z,2.75
2023-03-22T09:46:32.217Z,2.67
2023-03-22T09:49:02.846Z,2.33
2023-03-22T09:51:48.600Z,2.20
2023-03-22T09:54:21.555Z,2.15
2023-03-22T09:57:11.056Z,2.35
2023-03-22T09:59:50.337Z,1.88
2023-03-22T10:02:38.109Z,2.20
2023-03-22T10:05:13.020Z,1.45
2023-03-22T10:07:50.161Z,2.88
2023-03-22T10:10:20.592Z,1.40
2023-03-22T10:13:00.201Z,0.95
2023-03-22T10:15:31.306Z,2.75
2023-03-22T10:18:01.000Z,1.55
2023-03-22T10:20:53.923Z,1.50
2023-03-22T10:23:27.968Z,1.20
2023-03-22T10:25:57.341Z,1.67
2023-03-22T10:28:30.166Z,2.35
2023-03-22T10:30:58.013Z,1.88
2023-03-22T10:33:27.029Z,1.98
2023-03-22T10:35:55.192Z,1.25
2023-03-22T10:38:25.937Z,1.27
2023-03-22T10:40:55.806Z,1.20
2023-03-22T10:43:39.930Z,1.73
2023-03-22T10:46:12.806Z,1.60
2023-03-22T10:48:44.291Z,1.23
2023-03-22T10:51:32.522Z,1.92
2023-03-22T10:54:01.226Z,1.38
2023-03-22T10:56:28.083Z,1.70
2023-03-22T10:58:56.226Z,1.23
2023-03-22T11:01:32.767Z,1.30
2023-03-22T11:04:08.749Z,2.05
2023-03-22T11:06:56.228Z,1.15
2023-03-22T11:09:24.587Z,1.70
2023-03-22T11:11:53.523Z,1.08
2023-03-22T11:14:30.666Z,1.35
2023-03-22T11:17:01.598Z,0.90
2023-03-22T11:19:34.741Z,1.67
2023-03-22T11:22:07.797Z,1.88
2023-03-22T11:24:35.312Z,1.20
2023-03-22T11:27:07.912Z,1.13
2023-03-22T11:29:42.695Z,1.67
2023-03-22T11:32:29.573Z,1.30
2023-03-22T11:35:01.475Z,1.38
2023-03-22T11:37:28.299Z,1.20
2023-03-22T11:40:01.600Z,2.25
2023-03-22T11:42:28.706Z,1.65
2023-03-22T11:44:56.864Z,3.05
2023-03-22T11:47:27.235Z,3.00
2023-03-22T11:49:56.962Z,1.45
2023-03-22T11:52:26.904Z,1.48
2023-03-22T11:54:55.368Z,1.60
2023-03-22T11:57:27.284Z,2.78
2023-03-22T12:00:01.080Z,2.25
2023-03-22T12:02:30.466Z,2.25
2023-03-22T12:05:05.514Z,1.33
2023-03-22T12:07:34.776Z,1.38
2023-03-22T12:10:11.001Z,0.80
2023-03-22T12:12:44.283Z,0.82
2023-03-22T12:15:12.218Z,1.15
2023-03-22T12:17:45.528Z,1.13
2023-03-22T12:20:26.765Z,1.20
2023-03-22T12:22:55.086Z,3.17
2023-03-22T12:25:27.111Z,0.80
2023-03-22T12:27:58.040Z,0.85
2023-03-22T12:30:29.806Z,1.00
2023-03-22T12:33:02.614Z,1.05
2023-03-22T12:35:35.174Z,0.88
2023-03-22T12:38:23.697Z,1.52
2023-03-22T12:40:53.271Z,1.27
2023-03-22T12:43:35.602Z,0.77
2023-03-22T12:46:05.263Z,2.33
2023-03-22T12:48:40.169Z,1.23
2023-03-22T12:51:12.000Z,1.60
2023-03-22T12:53:43.028Z,1.52
2023-03-22T12:56:16.636Z,2.35
2023-03-22T12:58:48.339Z,1.70
2023-03-22T13:01:29.061Z,1.15
2023-03-22T13:03:57.652Z,1.60
2023-03-22T13:06:53.557Z,0.77
2023-03-22T13:09:29.806Z,0.93
2023-03-22T13:12:16.593Z,0.70
2023-03-22T13:14:50.956Z,0.60
2023-03-22T13:17:25.712Z,0.95
2023-03-22T13:20:14.680Z,0.80
2023-03-22T13:22:42.333Z,1.38
2023-03-22T13:25:10.721Z,1.08
2023-03-22T13:27:44.800Z,0.50
2023-03-22T13:30:33.121Z,2.15
2023-03-22T13:33:20.005Z,0.73
2023-03-22T13:36:08.458Z,0.70
2023-03-22T13:38:42.202Z,1.35
2023-03-22T13:41:21.674Z,2.55
2023-03-22T13:43:51.040Z,0.88
2023-03-22T13:46:17.864Z,0.65
2023-03-22T13:49:01.993Z,1.15
2023-03-22T13:51:31.760Z,0.77
2023-03-22T13:54:16.467Z,0.80
2023-03-22T13:56:45.563Z,2.30
2023-03-22T13:59:30.030Z,2.35
2023-03-22T14:02:12.770Z,3.13
2023-03-22T14:04:43.208Z,1.85
2023-03-22T14:07:37.085Z,1.63
2023-03-22T14:10:06.612Z,0.70
2023-03-22T14:12:46.539Z,0.77
2023-03-22T14:15:18.252Z,1.15
2023-03-22T14:18:07.372Z,0.60
2023-03-22T14:20:36.913Z,0.80
